createdAt,value
2023-02-15T00:00:08.419Z,0.51
2023-02-15T00:01:08.528Z,0.52
2023-02-15T00:02:08.580Z,0.51
2023-02-15T00:03:08.632Z,0.50
2023-02-15T00:04:08.641Z,0.52
2023-02-15T00:05:08.691Z,0.50
2023-02-15T00:06:08.768Z,0.51
2023-02-15T00:07:08.813Z,0.51
2023-02-15T00:08:08.867Z,0.51
2023-02-15T00:09:08.934Z,0.51
2023-02-15T00:10:08.960Z,0.51
2023-02-15T00:11:09.018Z,0.51
2023-02-15T00:12:09.071Z,0.51
2023-02-15T00:13:09.201Z,0.51
2023-02-15T00:14:09.237Z,0.51
2023-02-15T00:15:09.301Z,0.50
2023-02-15T00:16:09.359Z,0.51
2023-02-15T00:17:09.361Z,0.52
2023-02-15T00:18:09.432Z,0.51
2023-02-15T00:19:09.506Z,0.51
2023-02-15T00:20:09.558Z,0.51
2023-02-15T00:21:09.601Z,0.52
2023-02-15T00:22:09.659Z,0.51
2023-02-15T00:23:09.693Z,0.52
2023-02-15T00:24:09.735Z,0.51
2023-02-15T00:25:09.825Z,0.51
2023-02-15T00:26:09.893Z,0.52
2023-02-15T00:27:09.914Z,0.51
2023-02-15T00:28:09.978Z,0.51
2023-02-15T00:29:10.044Z,0.52
2023-02-15T00:30:10.111Z,0.52
2023-02-15T00:31:10.192Z,0.52
2023-02-15T00:32:10.140Z,0.52
2023-02-15T00:33:10.218Z,0.52
2023-02-15T00:34:10.299Z,0.53
2023-02-15T00:35:10.311Z,0.52
2023-02-15T00:36:10.368Z,0.52
2023-02-15T00:37:10.396Z,0.52
2023-02-15T00:38:10.487Z,0.52
2023-02-15T00:39:10.533Z,0.52
2023-02-15T00:40:10.602Z,0.52
2023-02-15T00:41:10.759Z,0.52
2023-02-15T00:42:10.698Z,0.51
2023-02-15T00:43:10.715Z,0.52
2023-02-15T00:44:10.796Z,0.52
2023-02-15T00:45:10.843Z,0.51
2023-02-15T00:46:10.935Z,0.51
2023-02-15T00:47:10.954Z,0.51
2023-02-15T00:48:11.070Z,0.51
2023-02-15T00:49:11.042Z,0.51
2023-02-15T00:50:11.079Z,0.51
2023-02-15T00:51:11.138Z,0.51
2023-02-15T00:52:11.194Z,0.51
2023-02-15T00:53:11.295Z,0.51
2023-02-15T00:54:11.338Z,0.50
2023-02-15T00:55:11.377Z,0.51
2023-02-15T00:56:11.438Z,0.50
2023-02-15T00:57:11.478Z,0.51
2023-02-15T00:58:11.547Z,0.52
2023-02-15T00:59:11.594Z,0.51
2023-02-15T01:00:11.621Z,0.51
2023-02-15T01:01:11.779Z,0.51
2023-02-15T01:02:11.734Z,0.51
2023-02-15T01:03:11.780Z,0.51
2023-02-15T01:04:11.903Z,0.52
2023-02-15T01:05:11.904Z,0.51
2023-02-15T01:06:11.967Z,0.53
2023-02-15T01:07:12.078Z,0.50
2023-02-15T01:08:12.064Z,0.50
2023-02-15T01:09:12.107Z,0.51
2023-02-15T01:10:12.148Z,0.51
2023-02-15T01:11:12.232Z,0.51
2023-02-15T01:12:12.268Z,0.51
2023-02-15T01:13:12.315Z,0.50
2023-02-15T01:14:12.345Z,0.51
2023-02-15T01:15:12.454Z,0.51
2023-02-15T01:16:12.484Z,0.50
2023-02-15T01:17:12.552Z,0.51
2023-02-15T01:18:12.531Z,0.51
2023-02-15T01:19:12.572Z,0.50
2023-02-15T01:20:12.621Z,0.50
2023-02-15T01:21:12.721Z,0.52
2023-02-15T01:22:12.734Z,0.51
2023-02-15T01:23:12.816Z,0.52
2023-02-15T01:24:12.878Z,0.50
2023-02-15T01:25:12.924Z,0.50
2023-02-15T01:26:12.965Z,0.51
2023-02-15T01:27:13.019Z,0.51
2023-02-15T01:28:13.058Z,0.51
2023-02-15T01:29:13.130Z,0.51
2023-02-15T01:30:13.218Z,0.50
2023-02-15T01:31:13.356Z,0.50
2023-02-15T01:32:13.328Z,0.51
2023-02-15T01:33:13.317Z,0.51
2023-02-15T01:34:13.401Z,0.50
2023-02-15T01:35:13.504Z,0.51
2023-02-15T01:36:13.536Z,0.50
2023-02-15T01:37:13.567Z,0.52
2023-02-15T01:38:13.631Z,0.51
2023-02-15T01:39:13.695Z,0.51
2023-02-15T01:40:13.748Z,0.52
2023-02-15T01:41:13.793Z,0.51
2023-02-15T01:42:13.838Z,0.51
2023-02-15T01:56:14.651Z,0.52
2023-02-15T01:57:14.710Z,0.51
2023-02-15T01:58:14.754Z,0.52
2023-02-15T01:59:14.828Z,0.51
2023-02-15T02:00:14.884Z,0.52
2023-02-15T02:01:14.967Z,0.50
2023-02-15T02:02:14.998Z,0.52
2023-02-15T02:03:15.033Z,0.51
2023-02-15T02:04:15.076Z,0.51
2023-02-15T02:05:15.140Z,0.51
2023-02-15T02:06:15.205Z,0.52
2023-02-15T02:07:15.262Z,0.52
2023-02-15T02:08:15.318Z,0.50
2023-02-15T02:09:15.320Z,0.52
2023-02-15T02:10:15.418Z,0.51
2023-02-15T02:11:15.438Z,0.50
2023-02-15T02:12:15.535Z,0.51
2023-02-15T02:13:15.571Z,0.52
2023-02-15T02:14:15.653Z,0.51
2023-02-15T02:15:15.691Z,0.51
2023-02-15T02:16:15.756Z,0.51
2023-02-15T02:17:15.819Z,0.52
2023-02-15T02:18:15.879Z,0.51
2023-02-15T02:19:15.897Z,0.51
2023-02-15T02:20:15.955Z,0.51
2023-02-15T02:21:16.006Z,0.53
2023-02-15T02:22:16.062Z,0.51
2023-02-15T02:23:16.157Z,0.51
2023-02-15T02:24:16.162Z,0.52
2023-02-15T02:25:16.210Z,0.51
2023-02-15T02:26:16.289Z,0.50
2023-02-15T02:27:16.351Z,0.52
2023-02-15T02:28:16.388Z,0.52
2023-02-15T02:29:16.417Z,0.51
2023-02-15T02:30:16.571Z,0.52
2023-02-15T02:31:16.642Z,0.51
2023-02-15T02:32:16.626Z,0.52
2023-02-15T02:33:16.651Z,0.50
2023-02-15T02:34:16.700Z,0.51
2023-02-15T02:35:16.740Z,0.52
2023-02-15T02:36:16.793Z,0.51
2023-02-15T02:37:16.880Z,0.51
2023-02-15T02:38:16.925Z,0.51
2023-02-15T02:39:16.972Z,0.51
2023-02-15T02:40:17.009Z,0.51
2023-02-15T02:41:17.059Z,0.52
2023-02-15T02:42:17.135Z,0.52
2023-02-15T02:43:17.175Z,0.50
2023-02-15T02:44:17.214Z,0.50
2023-02-15T02:45:17.272Z,0.50
2023-02-15T02:46:17.369Z,0.51
2023-02-15T02:47:17.369Z,0.51
2023-02-15T02:48:17.459Z,0.51
2023-02-15T02:49:17.528Z,0.51
2023-02-15T02:50:17.575Z,0.51
2023-02-15T02:51:17.651Z,0.51
2023-02-15T02:52:17.669Z,0.51
2023-02-15T02:53:17.734Z,0.50
2023-02-15T02:54:17.786Z,0.52
2023-02-15T02:55:17.843Z,0.51
2023-02-15T02:56:17.879Z,0.51
2023-02-15T02:57:17.933Z,0.52
2023-02-15T02:58:18.054Z,0.51
2023-02-15T02:59:18.083Z,0.50
2023-02-15T03:00:18.697Z,0.52
2023-02-15T03:01:18.167Z,0.53
2023-02-15T03:02:18.198Z,0.52
2023-02-15T03:03:18.282Z,0.51
2023-02-15T03:04:18.309Z,0.52
2023-02-15T03:05:18.368Z,0.51
2023-02-15T03:06:18.411Z,0.51
2023-02-15T03:07:18.466Z,0.51
2023-02-15T03:08:18.526Z,0.51
2023-02-15T03:09:18.595Z,0.51
2023-02-15T03:10:18.647Z,0.51
2023-02-15T03:11:18.712Z,0.51
2023-02-15T03:12:18.773Z,0.52
2023-02-15T03:13:18.828Z,0.50
2023-02-15T03:14:18.882Z,0.51
2023-02-15T03:15:18.937Z,0.51
2023-02-15T03:16:19.014Z,0.50
2023-02-15T03:17:19.067Z,0.51
2023-02-15T03:18:19.118Z,0.51
2023-02-15T03:19:19.128Z,0.51
2023-02-15T03:20:19.170Z,0.51
2023-02-15T03:21:19.243Z,0.51
2023-02-15T03:22:19.323Z,0.51
2023-02-15T03:23:19.347Z,0.51
2023-02-15T03:24:19.375Z,0.51
2023-02-15T03:25:19.451Z,0.52
2023-02-15T03:26:19.502Z,0.51
2023-02-15T03:27:19.572Z,0.52
2023-02-15T03:28:19.603Z,0.52
2023-02-15T03:29:19.658Z,0.51
2023-02-15T03:30:19.821Z,0.52
2023-02-15T03:31:19.850Z,0.51
2023-02-15T03:32:19.847Z,0.52
2023-02-15T03:33:19.859Z,0.51
2023-02-15T03:34:19.884Z,0.50
2023-02-15T03:35:19.997Z,0.51
2023-02-15T03:36:20.031Z,0.51
2023-02-15T03:37:20.064Z,0.51
2023-02-15T03:38:20.128Z,0.51
2023-02-15T03:39:20.206Z,0.51
2023-02-15T03:40:20.242Z,0.51
2023-02-15T03:41:20.291Z,0.52
2023-02-15T03:42:20.375Z,0.52
2023-02-15T03:43:20.449Z,0.51
2023-02-15T03:44:20.477Z,0.50
2023-02-15T03:45:20.513Z,0.52
2023-02-15T03:46:20.587Z,0.52
2023-02-15T03:47:20.623Z,0.52
2023-02-15T03:48:20.703Z,0.52
2023-02-15T03:49:20.704Z,0.51
2023-02-15T03:50:20.765Z,0.52
2023-02-15T03:51:20.828Z,0.52
2023-02-15T03:52:20.891Z,0.51
2023-02-15T03:53:21.957Z,0.51
2023-02-15T03:54:20.989Z,0.52
2023-02-15T03:55:21.004Z,0.51
2023-02-15T03:56:21.056Z,0.50
2023-02-15T03:57:21.122Z,0.51
2023-02-15T03:58:21.154Z,0.52
2023-02-15T03:59:21.244Z,0.51
2023-02-15T04:00:21.221Z,0.51
2023-02-15T04:01:21.293Z,0.51
2023-02-15T04:02:21.354Z,0.51
2023-02-15T04:03:21.399Z,0.51
2023-02-15T04:04:21.428Z,0.51
2023-02-15T04:05:21.478Z,0.50
2023-02-15T04:06:21.485Z,0.51
2023-02-15T04:07:21.550Z,0.51
2023-02-15T04:08:21.605Z,0.51
2023-02-15T04:09:21.636Z,0.51
2023-02-15T04:10:21.721Z,0.51
2023-02-15T04:11:21.738Z,0.51
2023-02-15T04:12:21.754Z,0.50
2023-02-15T04:13:21.816Z,0.52
2023-02-15T04:14:21.833Z,0.51
2023-02-15T04:15:21.863Z,0.51
2023-02-15T04:16:22.836Z,0.50
2023-02-15T04:17:21.926Z,0.51
2023-02-15T04:18:21.999Z,0.51
2023-02-15T04:19:22.014Z,0.51
2023-02-15T04:20:22.072Z,0.51
2023-02-15T04:21:22.084Z,0.50
2023-02-15T04:22:22.117Z,0.51
2023-02-15T04:23:22.179Z,0.51
2023-02-15T04:24:22.184Z,0.51
2023-02-15T04:25:22.229Z,0.51
2023-02-15T04:26:22.247Z,0.51
2023-02-15T04:27:22.296Z,0.51
2023-02-15T04:28:22.347Z,0.51
2023-02-15T04:29:22.372Z,0.52
2023-02-15T04:30:22.409Z,0.51
2023-02-15T04:31:22.536Z,0.51
2023-02-15T04:32:22.600Z,0.51
2023-02-15T04:33:22.552Z,0.52
2023-02-15T04:34:22.588Z,0.52
2023-02-15T04:35:22.563Z,0.52
2023-02-15T04:36:22.625Z,0.51
2023-02-15T04:37:22.634Z,0.51
2023-02-15T04:38:22.686Z,0.52
2023-02-15T04:39:22.695Z,0.51
2023-02-15T04:40:22.733Z,0.51
2023-02-15T04:41:22.760Z,0.51
2023-02-15T04:42:22.768Z,0.52
2023-02-15T04:43:22.766Z,0.51
2023-02-15T04:44:22.838Z,0.51
2023-02-15T04:45:22.830Z,0.52
2023-02-15T04:46:22.935Z,0.51
2023-02-15T04:47:22.931Z,0.52
2023-02-15T04:48:22.966Z,0.52
2023-02-15T04:49:22.976Z,0.52
2023-02-15T04:50:23.024Z,0.51
2023-02-15T04:51:23.102Z,0.51
2023-02-15T04:52:23.100Z,0.52
2023-02-15T04:53:23.144Z,0.51
2023-02-15T04:54:23.220Z,0.51
2023-02-15T04:55:23.238Z,0.51
2023-02-15T04:56:23.246Z,0.50
2023-02-15T04:57:23.300Z,0.51
2023-02-15T04:58:23.376Z,0.51
2023-02-15T04:59:23.389Z,0.51
2023-02-15T05:00:23.408Z,0.51
2023-02-15T05:01:23.489Z,0.51
2023-02-15T05:02:23.513Z,0.51
2023-02-15T05:03:23.503Z,0.50
2023-02-15T05:04:23.563Z,0.51
2023-02-15T05:05:23.545Z,0.50
2023-02-15T05:06:23.555Z,0.51
2023-02-15T05:07:23.580Z,0.51
2023-02-15T05:08:23.630Z,0.51
2023-02-15T05:09:23.632Z,0.51
2023-02-15T05:10:23.669Z,0.51
2023-02-15T05:11:23.670Z,0.50
2023-02-15T05:12:23.724Z,0.51
2023-02-15T05:13:23.738Z,0.51
2023-02-15T05:14:23.780Z,0.51
2023-02-15T05:15:23.814Z,0.51
2023-02-15T05:16:23.845Z,0.50
2023-02-15T05:17:23.870Z,0.51
2023-02-15T05:18:23.939Z,0.51
2023-02-15T05:19:23.992Z,0.51
2023-02-15T05:20:23.994Z,0.52
2023-02-15T05:21:24.044Z,0.51
2023-02-15T05:22:24.073Z,0.51
2023-02-15T05:23:24.054Z,0.51
2023-02-15T05:24:24.149Z,0.51
2023-02-15T05:25:24.117Z,0.51
2023-02-15T05:26:24.150Z,0.51
2023-02-15T05:27:24.195Z,0.52
2023-02-15T05:28:24.194Z,0.51
2023-02-15T05:29:24.354Z,0.52
2023-02-15T05:30:24.383Z,0.51
2023-02-15T05:31:24.527Z,0.51
2023-02-15T05:32:24.427Z,0.52
2023-02-15T05:33:24.349Z,0.51
2023-02-15T05:34:24.366Z,0.51
2023-02-15T05:35:25.303Z,0.52
2023-02-15T05:36:25.293Z,0.51
2023-02-15T05:37:24.416Z,0.51
2023-02-15T05:38:24.456Z,0.52
2023-02-15T05:39:24.466Z,0.52
2023-02-15T05:40:24.503Z,0.51
2023-02-15T05:41:24.558Z,0.51
2023-02-15T05:42:24.550Z,0.52
2023-02-15T05:43:24.680Z,0.51
2023-02-15T05:44:24.600Z,0.52
2023-02-15T05:45:24.638Z,0.51
2023-02-15T05:46:24.785Z,0.51
2023-02-15T05:47:24.702Z,0.52
2023-02-15T05:48:24.739Z,0.51
2023-02-15T05:49:24.801Z,0.52
2023-02-15T05:50:24.780Z,0.51
2023-02-15T05:51:24.786Z,0.51
2023-02-15T05:52:24.847Z,0.51
2023-02-15T05:53:24.869Z,0.52
2023-02-15T05:54:24.887Z,0.51
2023-02-15T05:55:24.914Z,0.51
2023-02-15T05:56:24.927Z,0.52
2023-02-15T05:57:24.966Z,0.51
2023-02-15T05:58:25.012Z,0.51
2023-02-15T05:59:25.039Z,0.51
2023-02-15T06:00:25.041Z,0.52
2023-02-15T06:02:44.738Z,0.50
2023-02-15T06:03:44.786Z,0.50
2023-02-15T06:04:44.641Z,0.50
2023-02-15T06:05:44.619Z,0.50
2023-02-15T06:06:44.593Z,0.50
2023-02-15T06:07:44.588Z,0.50
2023-02-15T06:08:44.576Z,0.51
2023-02-15T06:09:44.549Z,0.51
2023-02-15T06:10:44.550Z,0.50
2023-02-15T06:11:44.497Z,0.51
2023-02-15T06:12:44.490Z,0.51
2023-02-15T06:13:44.463Z,0.51
2023-02-15T06:14:44.402Z,0.51
2023-02-15T06:15:44.456Z,0.51
2023-02-15T06:16:44.375Z,0.51
2023-02-15T06:17:44.397Z,0.51
2023-02-15T06:18:44.333Z,0.51
2023-02-15T06:19:44.346Z,0.51
2023-02-15T06:20:44.317Z,0.50
2023-02-15T06:21:44.285Z,0.51
2023-02-15T06:22:44.272Z,0.51
2023-02-15T06:23:44.235Z,0.51
2023-02-15T06:24:44.206Z,0.51
2023-02-15T06:25:44.186Z,0.51
2023-02-15T06:26:44.149Z,0.51
2023-02-15T06:27:44.157Z,0.52
2023-02-15T06:28:44.130Z,0.52
2023-02-15T06:29:44.076Z,0.50
2023-02-15T06:30:44.097Z,0.50
2023-02-15T06:31:44.132Z,0.51
2023-02-15T06:32:44.018Z,0.51
2023-02-15T06:33:43.995Z,0.51
2023-02-15T06:34:43.962Z,0.51
2023-02-15T06:35:43.928Z,0.51
2023-02-15T06:36:43.909Z,0.51
2023-02-15T06:37:43.917Z,0.51
2023-02-15T06:38:43.869Z,0.51
2023-02-15T06:39:43.796Z,0.52
2023-02-15T06:40:43.781Z,0.52
2023-02-15T06:41:43.792Z,0.52
2023-02-15T06:42:43.751Z,0.50
2023-02-15T06:43:43.720Z,0.51
2023-02-15T06:44:43.689Z,0.51
2023-02-15T06:45:43.670Z,0.52
2023-02-15T06:46:43.660Z,0.52
2023-02-15T06:47:43.597Z,0.51
2023-02-15T06:48:43.603Z,0.52
2023-02-15T06:49:43.525Z,0.51
2023-02-15T06:50:43.520Z,0.51
2023-02-15T06:51:43.502Z,0.51
2023-02-15T06:52:43.475Z,0.51
2023-02-15T06:53:43.468Z,0.52
2023-02-15T06:54:43.416Z,0.52
2023-02-15T06:55:43.369Z,0.52
2023-02-15T06:56:43.343Z,0.52
2023-02-15T06:57:43.298Z,0.52
2023-02-15T06:58:43.286Z,0.51
2023-02-15T06:59:43.255Z,0.51
2023-02-15T07:00:43.273Z,0.52
2023-02-15T07:01:43.265Z,0.52
2023-02-15T07:02:43.208Z,0.52
2023-02-15T07:03:43.189Z,0.52
2023-02-15T07:04:43.135Z,0.51
2023-02-15T07:05:43.121Z,0.52
2023-02-15T07:06:43.048Z,0.52
2023-02-15T07:07:43.040Z,0.52
2023-02-15T07:08:43.039Z,0.53
2023-02-15T07:09:43.042Z,0.52
2023-02-15T07:10:43.039Z,0.52
2023-02-15T07:11:43.052Z,0.52
2023-02-15T07:12:43.086Z,0.52
2023-02-15T07:13:43.063Z,0.52
2023-02-15T07:14:43.072Z,0.52
2023-02-15T07:15:43.076Z,0.53
2023-02-15T07:16:43.066Z,0.53
2023-02-15T07:17:43.079Z,0.53
2023-02-15T07:18:43.073Z,0.52
2023-02-15T07:19:43.093Z,0.52
2023-02-15T07:20:43.109Z,0.53
2023-02-15T07:21:43.101Z,0.52
2023-02-15T07:22:43.116Z,0.53
2023-02-15T07:23:43.103Z,0.52
2023-02-15T07:24:43.128Z,0.53
2023-02-15T07:25:43.169Z,0.53
2023-02-15T07:26:43.157Z,0.53
2023-02-15T07:27:43.200Z,0.53
2023-02-15T07:28:43.146Z,0.54
2023-02-15T07:29:43.152Z,0.53
2023-02-15T07:30:43.176Z,0.54
2023-02-15T07:31:43.163Z,0.55
2023-02-15T07:32:43.352Z,0.55
2023-02-15T07:33:43.211Z,0.56
2023-02-15T07:34:43.197Z,0.55
2023-02-15T07:35:43.155Z,0.56
2023-02-15T07:36:43.182Z,0.58
2023-02-15T07:37:43.193Z,0.57
2023-02-15T07:38:43.153Z,0.57
2023-02-15T07:39:43.136Z,0.58
2023-02-15T07:40:43.184Z,0.59
2023-02-15T07:41:43.164Z,0.60
2023-02-15T07:42:43.199Z,0.60
2023-02-15T07:43:43.185Z,0.61
2023-02-15T07:44:43.180Z,0.62
2023-02-15T07:45:43.215Z,0.61
2023-02-15T07:46:43.222Z,0.63
2023-02-15T07:47:43.163Z,0.64
2023-02-15T07:48:43.237Z,0.65
2023-02-15T07:49:43.204Z,0.65
2023-02-15T07:50:43.181Z,0.66
2023-02-15T07:51:43.152Z,0.66
2023-02-15T07:52:43.205Z,0.67
2023-02-15T07:53:43.311Z,0.68
2023-02-15T07:54:43.167Z,0.70
2023-02-15T07:55:43.171Z,0.72
2023-02-15T07:56:43.150Z,0.75
2023-02-15T07:57:43.179Z,0.75
2023-02-15T07:58:43.167Z,0.76
2023-02-15T07:59:43.155Z,0.77
2023-02-15T08:00:43.182Z,0.77
2023-02-15T08:01:43.162Z,0.80
2023-02-15T08:02:43.238Z,0.81
2023-02-15T08:03:43.230Z,0.80
2023-02-15T08:04:43.190Z,0.81
2023-02-15T08:05:43.137Z,0.83
2023-02-15T08:06:43.153Z,0.83
2023-02-15T08:07:43.168Z,0.85
2023-02-15T08:08:43.138Z,0.86
2023-02-15T08:09:43.154Z,0.86
2023-02-15T08:10:43.142Z,0.89
2023-02-15T08:11:43.128Z,0.89
2023-02-15T08:12:43.144Z,0.89
2023-02-15T08:13:43.549Z,0.90
2023-02-15T08:14:43.150Z,0.89
2023-02-15T08:15:43.119Z,0.90
2023-02-15T08:16:43.251Z,0.90
2023-02-15T08:17:43.110Z,0.91
2023-02-15T08:18:43.076Z,0.91
2023-02-15T08:19:43.115Z,0.92
2023-02-15T08:20:43.089Z,0.92
2023-02-15T08:21:43.120Z,0.93
2023-02-15T08:22:43.099Z,0.94
2023-02-15T08:23:43.138Z,0.92
2023-02-15T08:24:43.113Z,0.93
2023-02-15T08:25:43.128Z,0.93
2023-02-15T08:26:43.119Z,0.93
2023-02-15T08:27:43.109Z,0.93
2023-02-15T08:28:43.156Z,0.92
2023-02-15T08:29:43.213Z,0.94
2023-02-15T08:30:43.115Z,0.93
2023-02-15T08:31:43.246Z,0.92
2023-02-15T08:32:43.094Z,0.92
2023-02-15T08:33:43.100Z,0.92
2023-02-15T08:34:43.115Z,0.92
2023-02-15T08:35:43.052Z,0.93
2023-02-15T08:36:43.051Z,0.94
2023-02-15T08:37:43.044Z,0.92
2023-02-15T08:38:43.046Z,0.95
2023-02-15T08:39:43.029Z,0.94
2023-02-15T08:40:43.029Z,0.91
2023-02-15T08:41:43.028Z,0.92
2023-02-15T08:42:43.035Z,0.92
2023-02-15T08:43:43.014Z,0.92
2023-02-15T08:44:42.971Z,0.94
2023-02-15T08:45:43.016Z,0.92
2023-02-15T08:46:42.999Z,0.92
2023-02-15T08:47:42.997Z,0.91
2023-02-15T08:48:43.011Z,0.91
2023-02-15T08:49:42.989Z,0.92
2023-02-15T08:50:43.016Z,0.92
2023-02-15T08:51:42.958Z,0.91
2023-02-15T08:52:42.993Z,0.92
2023-02-15T08:53:43.015Z,0.92
2023-02-15T08:54:42.964Z,0.91
2023-02-15T08:55:42.991Z,0.93
2023-02-15T08:56:43.002Z,0.94
2023-02-15T08:57:43.006Z,0.93
2023-02-15T08:58:43.032Z,0.94
2023-02-15T08:59:42.984Z,0.93
2023-02-15T09:00:43.026Z,0.94
2023-02-15T09:01:43.024Z,0.94
2023-02-15T09:02:42.988Z,0.94
2023-02-15T09:03:43.007Z,0.94
2023-02-15T09:04:43.034Z,0.95
2023-02-15T09:05:42.988Z,0.95
2023-02-15T09:06:43.002Z,0.94
2023-02-15T09:07:43.001Z,0.95
2023-02-15T09:08:42.973Z,0.95
2023-02-15T09:09:42.956Z,0.97
2023-02-15T09:10:42.968Z,0.96
2023-02-15T09:11:42.955Z,0.97
2023-02-15T09:12:42.935Z,0.97
2023-02-15T09:13:42.974Z,0.97
2023-02-15T09:14:42.931Z,0.97
2023-02-15T09:15:42.920Z,0.98
2023-02-15T09:16:42.949Z,0.98
2023-02-15T09:17:42.926Z,0.99
2023-02-15T09:18:42.874Z,1.00
2023-02-15T09:19:42.890Z,0.99
2023-02-15T09:20:42.861Z,1.00
2023-02-15T09:21:42.895Z,1.01
2023-02-15T09:22:42.845Z,1.02
2023-02-15T09:23:42.840Z,1.02
2023-02-15T09:24:42.805Z,1.02
2023-02-15T09:25:42.806Z,1.02
2023-02-15T09:26:42.841Z,1.03
2023-02-15T09:27:42.825Z,1.02
2023-02-15T09:28:42.789Z,1.05
2023-02-15T09:29:42.790Z,1.05
2023-02-15T09:30:42.823Z,1.07
2023-02-15T09:31:42.790Z,1.09
2023-02-15T09:32:42.762Z,1.11
2023-02-15T09:33:42.772Z,1.12
2023-02-15T09:34:42.786Z,1.14
2023-02-15T09:35:42.712Z,1.15
2023-02-15T09:36:42.697Z,1.17
2023-02-15T09:37:42.693Z,1.19
2023-02-15T09:38:42.699Z,1.23
2023-02-15T09:39:42.780Z,1.25
2023-02-15T09:40:42.676Z,1.26
2023-02-15T09:41:42.666Z,1.28
2023-02-15T09:42:42.672Z,1.32
2023-02-15T09:43:42.695Z,1.33
2023-02-15T09:44:42.642Z,1.36
2023-02-15T09:45:42.675Z,1.39
2023-02-15T09:46:42.643Z,1.42
2023-02-15T09:47:42.683Z,1.43
2023-02-15T09:48:42.615Z,1.45
2023-02-15T09:49:42.623Z,1.49
2023-02-15T09:50:42.598Z,1.53
2023-02-15T09:51:42.571Z,1.58
2023-02-15T09:52:42.590Z,1.60
2023-02-15T09:53:42.539Z,1.61
2023-02-15T09:54:42.556Z,1.64
2023-02-15T09:55:42.555Z,1.67
2023-02-15T09:56:42.512Z,1.70
2023-02-15T09:58:42.554Z,1.75
2023-02-15T10:04:42.508Z,1.88
2023-02-15T10:05:42.407Z,1.91
2023-02-15T10:06:42.424Z,1.92
2023-02-15T10:07:42.447Z,1.95
2023-02-15T10:08:42.449Z,1.99
2023-02-15T10:09:42.372Z,2.01
2023-02-15T10:10:42.379Z,2.05
2023-02-15T10:11:42.373Z,2.05
2023-02-15T10:12:42.384Z,2.12
2023-02-15T10:13:42.457Z,2.17
2023-02-15T10:14:42.366Z,2.17
2023-02-15T10:15:42.376Z,2.21
2023-02-15T10:16:42.464Z,2.24
2023-02-15T10:17:42.400Z,2.26
2023-02-15T10:18:42.422Z,2.31
2023-02-15T10:19:42.419Z,2.37
2023-02-15T10:40:42.417Z,3.61
2023-02-15T10:41:42.414Z,3.69
2023-02-15T10:42:42.388Z,3.66
2023-02-15T10:43:42.530Z,3.69
2023-02-15T10:44:42.416Z,3.70
2023-02-15T10:45:42.454Z,3.75
2023-02-15T10:46:42.409Z,3.76
2023-02-15T10:47:42.443Z,3.84
2023-02-15T10:48:42.421Z,3.87
2023-02-15T10:49:42.434Z,3.87
2023-02-15T10:50:42.419Z,3.97
2023-02-15T10:51:42.398Z,3.99
2023-02-15T10:52:42.414Z,4.01
2023-02-15T10:53:42.443Z,4.03
2023-02-15T10:54:42.434Z,4.04
2023-02-15T10:55:42.466Z,4.02
2023-02-15T10:56:42.425Z,4.05
2023-02-15T10:57:42.471Z,4.07
2023-02-15T10:58:42.451Z,4.10
2023-02-15T10:59:42.450Z,4.09
2023-02-15T11:00:42.452Z,4.11
2023-02-15T11:01:42.534Z,4.11
2023-02-15T11:02:42.477Z,4.15
2023-02-15T11:03:42.507Z,4.13
2023-02-15T11:04:42.500Z,4.14
2023-02-15T11:05:42.458Z,4.17
2023-02-15T11:06:42.455Z,4.15
2023-02-15T11:07:42.470Z,4.15
2023-02-15T11:08:42.497Z,4.21
2023-02-15T11:09:42.471Z,4.18
2023-02-15T11:10:42.437Z,4.14
2023-02-15T11:11:42.467Z,4.14
2023-02-15T11:20:42.475Z,4.10
2023-02-15T11:30:42.523Z,4.06
2023-02-15T11:31:42.679Z,4.08
2023-02-15T11:32:42.502Z,4.06
2023-02-15T11:33:42.657Z,4.02
2023-02-15T11:34:42.465Z,4.08
2023-02-15T11:35:42.486Z,4.08
2023-02-15T11:36:42.488Z,4.09
2023-02-15T11:37:42.492Z,4.10
2023-02-15T12:35:42.650Z,3.71
2023-02-15T12:36:42.627Z,3.64
2023-02-15T12:37:42.620Z,3.60
2023-02-15T12:38:42.641Z,3.59
2023-02-15T12:39:42.661Z,3.55
2023-02-15T12:40:42.653Z,3.54
2023-02-15T12:41:42.667Z,3.50
2023-02-15T12:42:42.661Z,3.48
2023-02-15T12:43:42.680Z,3.40
2023-02-15T12:44:42.691Z,3.41
2023-02-15T12:45:42.681Z,3.40
2023-02-15T12:46:42.711Z,3.38
2023-02-15T12:47:42.674Z,3.34
2023-02-15T12:48:42.710Z,3.29
2023-02-15T12:49:47.589Z,3.29
2023-02-15T12:50:43.678Z,3.29
2023-02-15T12:51:43.182Z,3.28
2023-02-15T12:52:42.558Z,3.22
2023-02-15T12:53:44.966Z,3.22
2023-02-15T12:54:42.705Z,3.24
2023-02-15T12:55:45.382Z,3.19
2023-02-15T12:56:42.631Z,3.17
2023-02-15T12:57:42.638Z,3.14
2023-02-15T12:58:42.548Z,3.12
2023-02-15T12:59:44.660Z,3.09
2023-02-15T13:00:42.519Z,3.09
2023-02-15T13:01:42.476Z,3.07
2023-02-15T13:02:42.398Z,3.04
2023-02-15T13:03:42.374Z,3.04
2023-02-15T13:04:42.321Z,3.04
2023-02-15T13:05:44.209Z,3.05
2023-02-15T13:06:42.214Z,3.08
2023-02-15T13:07:42.203Z,3.08
2023-02-15T13:08:42.171Z,3.09
2023-02-15T13:09:43.121Z,3.14
2023-02-15T13:10:42.101Z,3.18
2023-02-15T13:11:42.038Z,3.17
2023-02-15T13:12:42.027Z,3.15
2023-02-15T13:13:41.978Z,3.18
2023-02-15T13:14:41.937Z,3.21
2023-02-15T13:15:41.900Z,3.28
2023-02-15T13:16:41.940Z,3.31
2023-02-15T13:17:41.856Z,3.34
2023-02-15T13:18:41.822Z,3.35
2023-02-15T13:19:41.768Z,3.35
2023-02-15T13:20:41.738Z,3.37
2023-02-15T13:21:41.740Z,3.39
2023-02-15T13:22:41.691Z,3.40
2023-02-15T13:23:41.607Z,3.43
2023-02-15T13:24:41.594Z,3.42
2023-02-15T13:25:41.553Z,3.49
2023-02-15T13:26:41.505Z,3.53
2023-02-15T13:27:41.505Z,3.54
2023-02-15T13:28:41.451Z,3.58
2023-02-15T13:29:41.441Z,3.51
2023-02-15T13:30:41.376Z,3.54
2023-02-15T13:31:41.441Z,3.57
2023-02-15T13:32:41.262Z,3.62
2023-02-15T13:33:41.237Z,3.65
2023-02-15T13:34:41.195Z,3.70
2023-02-15T13:35:41.172Z,3.71
2023-02-15T13:36:41.132Z,3.70
2023-02-15T13:37:41.091Z,3.73
2023-02-15T13:38:41.080Z,3.78
2023-02-15T13:39:41.115Z,3.82
2023-02-15T13:40:41.117Z,3.88
2023-02-15T13:41:41.045Z,3.87
2023-02-15T13:42:41.050Z,3.81
2023-02-15T13:43:41.082Z,3.83
2023-02-15T13:44:41.077Z,3.84
2023-02-15T13:45:41.138Z,3.82
2023-02-15T13:46:43.147Z,3.85
2023-02-15T13:47:41.076Z,3.89
2023-02-15T13:48:48.445Z,3.89
2023-02-15T13:49:41.981Z,3.89
2023-02-15T13:50:40.956Z,3.90
2023-02-15T13:51:40.935Z,3.91
2023-02-15T13:52:40.867Z,3.85
2023-02-15T13:53:40.869Z,3.88
2023-02-15T13:54:40.811Z,3.84
2023-02-15T13:55:40.785Z,3.83
2023-02-15T13:56:40.728Z,3.77
2023-02-15T13:57:40.670Z,3.74
2023-02-15T13:58:40.674Z,3.79
2023-02-15T14:00:40.710Z,3.70
2023-02-15T14:02:40.632Z,3.68
2023-02-15T14:03:40.746Z,3.70
2023-02-15T14:04:40.652Z,3.69
2023-02-15T14:05:40.657Z,3.69
2023-02-15T14:06:40.765Z,3.65
2023-02-15T14:07:40.714Z,3.65
2023-02-15T14:08:40.671Z,3.68
2023-02-15T14:09:40.712Z,3.64
2023-02-15T14:10:40.739Z,3.65
2023-02-15T14:11:40.723Z,3.68
2023-02-15T14:12:40.750Z,3.75
2023-02-15T14:13:40.777Z,3.79
2023-02-15T14:14:40.771Z,3.84
2023-02-15T14:15:40.814Z,3.90
2023-02-15T14:16:40.831Z,4.02
2023-02-15T14:17:40.843Z,4.11
2023-02-15T14:18:40.818Z,4.19
2023-02-15T14:19:40.831Z,4.19
2023-02-15T14:20:40.882Z,4.25
2023-02-15T14:21:40.906Z,4.30
2023-02-15T14:22:41.294Z,4.37
2023-02-15T14:23:40.934Z,4.51
2023-02-15T14:24:41.851Z,4.61
2023-02-15T14:25:41.000Z,4.69
2023-02-15T14:26:40.950Z,4.63
2023-02-15T14:27:40.993Z,4.75
2023-02-15T14:28:40.989Z,4.76
2023-02-15T15:14:42.685Z,5.62
2023-02-15T16:06:42.644Z,6.49
2023-02-15T16:07:42.648Z,6.27
2023-02-15T16:08:42.677Z,6.42
2023-02-15T16:09:42.706Z,6.46
2023-02-15T16:10:42.724Z,6.43
2023-02-15T16:11:42.723Z,6.48
2023-02-15T16:12:42.748Z,6.49
2023-02-15T16:13:42.812Z,6.45
2023-02-15T16:14:42.803Z,6.44
2023-02-15T16:15:42.913Z,6.36
2023-02-15T16:16:42.864Z,6.41
2023-02-15T16:17:42.860Z,6.37
2023-02-15T16:18:42.844Z,6.40
2023-02-15T16:19:42.892Z,6.50
2023-02-15T16:20:42.905Z,6.45
2023-02-15T16:21:42.961Z,6.39
2023-02-15T16:22:42.935Z,6.30
2023-02-15T16:23:42.996Z,6.45
2023-02-15T16:24:42.981Z,6.48
2023-02-15T16:25:43.027Z,6.44
2023-02-15T16:26:43.072Z,6.46
2023-02-15T16:27:43.083Z,6.30
2023-02-15T16:28:43.119Z,6.38
2023-02-15T16:29:43.168Z,6.41
2023-02-15T16:30:43.238Z,6.43
2023-02-15T16:31:43.284Z,6.43
2023-02-15T16:32:43.225Z,6.47
2023-02-15T16:33:43.222Z,6.51
2023-02-15T16:34:43.244Z,6.54
2023-02-15T16:35:43.345Z,6.43
2023-02-15T16:36:43.324Z,6.36
2023-02-15T16:37:43.284Z,6.50
2023-02-15T16:38:43.354Z,6.39
2023-02-15T16:39:43.390Z,6.33
2023-02-15T16:40:43.381Z,6.43
2023-02-15T16:41:43.380Z,6.27
2023-02-15T16:42:43.397Z,6.33
2023-02-15T16:43:43.473Z,6.22
2023-02-15T16:44:43.428Z,6.33
2023-02-15T16:45:43.473Z,6.23
2023-02-15T16:46:43.606Z,6.23
2023-02-15T16:47:43.531Z,6.20
2023-02-15T16:48:43.541Z,6.21
2023-02-15T16:49:43.541Z,6.05
2023-02-15T16:50:43.581Z,6.11